Time;durP1;ratioP1;P1;durP2;ratioP2;P2;SDS_P1;SDS_P2;PMS_P1;PMS_P2;Temp;Humidity;BMP_temperature;BMP_pressure;BME280_temperature;BME280_humidity;BME280_pressure;Samples;Min_cycle;Max_cycle;Signal;HPM_P1;HPM_P2
2023/04/19 00:00:37;;;;;;;;;26.00;21.67;;;;;11.50;100.00;101529.06;4989181;28;45222;-79
2023/04/19 00:03:07;;;;;;;;;35.00;27.33;;;;;11.47;100.00;101527.56;4964686;28;45411;-81
2023/04/19 00:05:33;;;;;;;;;30.67;26.67;;;;;11.45;100.00;101535.16;4981843;28;45454;-80
2023/04/19 00:07:58;;;;;;;;;29.67;28.33;;;;;11.43;100.00;101528.16;4976358;28;46602;-81
2023/04/19 00:10:24;;;;;;;;;32.00;27.67;;;;;11.34;100.00;101519.19;4978160;28;45652;-80
2023/04/19 00:12:50;;;;;;;;;27.67;24.33;;;;;11.39;100.00;101521.34;4978495;28;45849;-81
2023/04/19 00:15:16;;;;;;;;;29.33;22.67;;;;;11.37;100.00;101523.44;4988233;28;45866;-80
2023/04/19 00:17:42;;;;;;;;;25.33;23.67;;;;;11.31;100.00;101514.91;4985171;28;45249;-79
2023/04/19 00:20:10;;;;;;;;;20.33;20.33;;;;;11.38;100.00;101525.16;4983438;28;45781;-79
2023/04/19 00:22:35;;;;;;;;;28.33;25.67;;;;;11.34;100.00;101532.06;4986799;28;45436;-80
2023/04/19 00:25:01;;;;;;;;;26.67;23.00;;;;;11.29;100.00;101522.50;4977536;28;45198;-80
2023/04/19 00:27:27;;;;;;;;;29.00;26.67;;;;;11.26;100.00;101531.13;4982438;28;45353;-79
2023/04/19 00:29:52;;;;;;;;;33.67;29.33;;;;;11.27;100.00;101529.22;5000104;28;44864;-78
2023/04/19 00:32:18;;;;;;;;;23.00;20.00;;;;;11.25;100.00;101532.19;4986634;28;45302;-79
2023/04/19 00:34:44;;;;;;;;;26.33;24.33;;;;;11.28;100.00;101519.97;4985774;28;45553;-78
2023/04/19 00:37:10;;;;;;;;;25.67;22.67;;;;;11.27;100.00;101534.72;4990125;28;48232;-81
2023/04/19 00:39:35;;;;;;;;;25.33;22.67;;;;;11.12;100.00;101510.94;4994323;28;45486;-79
2023/04/19 00:42:01;;;;;;;;;24.33;21.00;;;;;11.24;100.00;101530.50;4984534;28;45448;-81
2023/04/19 00:44:27;;;;;;;;;24.00;22.00;;;;;11.23;100.00;101522.44;4972217;28;45637;-79
2023/04/19 00:46:54;;;;;;;;;19.00;18.00;;;;;11.24;100.00;101527.75;4988531;28;45702;-79
2023/04/19 00:49:21;;;;;;;;;30.33;27.00;;;;;11.29;100.00;101528.00;4990102;28;45534;-80
2023/04/19 00:51:48;;;;;;;;;20.33;17.67;;;;;11.21;100.00;101514.41;4998866;28;45366;-81
2023/04/19 00:54:14;;;;;;;;;17.00;17.00;;;;;11.27;100.00;101524.63;4991039;28;45433;-79
2023/04/19 00:56:40;;;;;;;;;21.33;20.33;;;;;11.27;100.00;101523.75;4979837;28;47091;-81
2023/04/19 00:59:06;;;;;;;;;25.67;22.33;;;;;11.27;100.00;101529.22;4987134;28;45512;-79
2023/04/19 01:01:32;;;;;;;;;20.00;20.00;;;;;11.27;100.00;101529.22;4986894;28;45400;-79
2023/04/19 01:04:00;;;;;;;;;30.67;26.00;;;;;11.24;100.00;101525.00;4975245;28;45877;-80
2023/04/19 01:06:29;;;;;;;;;21.00;20.67;;;;;11.21;100.00;101524.53;4989224;28;45169;-77
2023/04/19 01:08:55;;;;;;;;;24.00;22.00;;;;;11.18;100.00;101533.16;4962385;28;45571;-79
2023/04/19 01:11:22;;;;;;;;;24.33;21.67;;;;;11.16;100.00;101518.78;4981388;28;45407;-79
2023/04/19 01:13:47;;;;;;;;;27.00;22.33;;;;;11.15;100.00;101522.56;5001798;28;45352;-81
2023/04/19 01:16:13;;;;;;;;;28.00;24.00;;;;;11.11;100.00;101522.94;5003557;28;45355;-81
2023/04/19 01:18:39;;;;;;;;;23.67;19.00;;;;;11.08;100.00;101523.34;5000595;28;44809;-81
2023/04/19 01:21:06;;;;;;;;;24.67;21.33;;;;;11.07;100.00;101527.09;4988168;28;45826;-80
2023/04/19 01:23:32;;;;;;;;;23.33;20.33;;;;;11.04;100.00;101519.25;4992684;28;45336;-80
2023/04/19 01:25:57;;;;;;;;;27.67;20.67;;;;;10.96;100.00;101511.16;4992944;28;44989;-82
2023/04/19 01:28:26;;;;;;;;;24.00;22.67;;;;;11.04;100.00;101513.78;4995193;28;45289;-80
2023/04/19 01:30:52;;;;;;;;;23.67;22.67;;;;;10.99;100.00;101510.78;4987651;28;45751;-82
2023/04/19 01:33:19;;;;;;;;;33.00;27.67;;;;;11.01;100.00;101518.81;4986611;28;45589;-80
2023/04/19 01:35:46;;;;;;;;;26.33;22.00;;;;;10.97;100.00;101515.59;4985427;28;46855;-80
2023/04/19 01:38:12;;;;;;;;;19.33;16.33;;;;;10.98;100.00;101516.44;4986617;28;45425;-82
2023/04/19 01:40:37;;;;;;;;;23.33;19.33;;;;;11.00;100.00;101514.34;4983655;28;45442;-80
2023/04/19 01:43:03;;;;;;;;;25.00;21.33;;;;;10.94;100.00;101513.22;4971906;28;45272;-81
2023/04/19 01:45:29;;;;;;;;;25.67;22.33;;;;;10.92;100.00;101507.09;4969861;28;45628;-79
2023/04/19 01:47:55;;;;;;;;;26.00;23.00;;;;;10.93;100.00;101519.78;4987068;28;45443;-80
2023/04/19 01:50:21;;;;;;;;;26.33;23.67;;;;;10.91;100.00;101508.13;4987192;28;45457;-81
2023/04/19 01:52:46;;;;;;;;;24.00;19.00;;;;;10.86;100.00;101516.94;4988061;28;45394;-80
2023/04/19 01:55:12;;;;;;;;;22.00;20.00;;;;;10.85;100.00;101508.91;4986703;28;45670;-80
2023/04/19 01:57:37;;;;;;;;;25.00;21.67;;;;;10.84;100.00;101507.19;4989405;28;45381;-78
2023/04/19 02:00:03;;;;;;;;;22.33;19.00;;;;;10.81;100.00;101508.44;4999547;28;45455;-81
2023/04/19 02:02:29;;;;;;;;;28.33;25.33;;;;;10.80;100.00;101505.88;4984657;28;45748;-80
2023/04/19 02:04:59;;;;;;;;;20.00;18.33;;;;;10.75;100.00;101499.06;4984984;28;45650;-82
2023/04/19 02:07:24;;;;;;;;;13.67;11.67;;;;;10.75;100.00;101512.78;4987065;28;45702;-83
2023/04/19 02:09:50;;;;;;;;;23.67;22.00;;;;;10.72;100.00;101507.69;4965497;28;45764;-81
2023/04/19 02:12:15;;;;;;;;;26.67;23.00;;;;;10.70;100.00;101506.19;4983689;28;45380;-80
2023/04/19 02:14:41;;;;;;;;;25.67;21.67;;;;;10.57;100.00;101485.75;4983417;28;45929;-81
2023/04/19 02:17:07;;;;;;;;;26.33;21.00;;;;;10.63;100.00;101505.22;4983996;28;46108;-85
2023/04/19 02:19:32;;;;;;;;;23.00;21.00;;;;;10.59;100.00;101504.78;4967755;28;45777;-81
2023/04/19 02:21:57;;;;;;;;;23.00;18.33;;;;;10.52;100.00;101503.81;4965869;28;46273;-80
2023/04/19 02:24:24;;;;;;;;;26.33;19.67;;;;;10.54;100.00;101512.72;4982617;28;45430;-81
2023/04/19 02:26:49;;;;;;;;;21.00;15.33;;;;;10.44;100.00;101495.72;4998435;28;45662;-81
2023/04/19 02:29:15;;;;;;;;;21.00;21.00;;;;;10.48;100.00;101503.38;4984955;28;44808;-79
2023/04/19 02:31:44;;;;;;;;;26.67;21.33;;;;;10.41;100.00;101503.25;4986112;28;45564;-79
2023/04/19 02:34:09;;;;;;;;;26.00;21.33;;;;;10.41;100.00;101514.22;4964852;28;47343;-79
2023/04/19 02:36:35;;;;;;;;;26.33;21.67;;;;;10.36;100.00;101510.34;4964853;28;45743;-79
2023/04/19 02:39:02;;;;;;;;;21.67;19.33;;;;;10.31;100.00;101504.56;4972550;28;45409;-80
2023/04/19 02:41:27;;;;;;;;;21.00;16.00;;;;;10.29;100.00;101498.41;4996847;28;45511;-79
2023/04/19 02:43:52;;;;;;;;;19.67;17.67;;;;;10.22;100.00;101498.31;4985232;28;45339;-78
2023/04/19 02:46:18;;;;;;;;;23.33;21.33;;;;;10.29;100.00;101504.75;4989395;28;45475;-81
2023/04/19 02:48:43;;;;;;;;;23.67;19.33;;;;;10.21;100.00;101496.63;4984812;28;45813;-81
2023/04/19 02:51:16;;;;;;;;;26.00;23.00;;;;;10.25;100.00;101506.16;4995970;28;45848;-80
2023/04/19 02:53:42;;;;;;;;;21.33;21.33;;;;;10.16;100.00;101494.41;4986866;28;45214;-80
2023/04/19 02:56:08;;;;;;;;;17.00;15.67;;;;;10.22;100.00;101504.66;4983781;28;45512;-81
2023/04/19 02:58:33;;;;;;;;;26.67;23.67;;;;;10.19;100.00;101501.41;4968399;28;45508;-81
2023/04/19 03:00:59;;;;;;;;;26.33;22.33;;;;;10.17;100.00;101509.00;4995751;28;45554;-80
2023/04/19 03:03:25;;;;;;;;;23.00;22.00;;;;;10.15;100.00;101500.09;4986577;28;45773;-79
2023/04/19 03:05:51;;;;;;;;;23.67;18.67;;;;;10.13;100.00;101507.66;4989106;28;45461;-83
2023/04/19 03:08:17;;;;;;;;;24.33;22.33;;;;;10.03;100.00;101497.81;4978536;28;45038;-86
2023/04/19 03:10:43;;;;;;;;;18.67;17.00;;;;;10.07;100.00;101501.91;4992402;28;45569;-87
2023/04/19 03:13:09;;;;;;;;;24.33;21.67;;;;;9.97;100.00;101484.00;4990687;28;45038;-84
2023/04/19 03:15:37;;;;;;;;;24.67;23.00;;;;;10.11;100.00;101509.75;4985075;28;45174;-85
2023/04/19 03:18:03;;;;;;;;;27.00;24.67;;;;;10.08;100.00;101514.53;4976196;28;45702;-83
2023/04/19 03:20:28;;;;;;;;;29.00;25.00;;;;;10.07;100.00;101509.25;4975157;28;46148;-84
2023/04/19 03:22:54;;;;;;;;;19.00;19.00;;;;;10.07;100.00;101512.88;4992552;28;45411;-84
2023/04/19 03:25:20;;;;;;;;;22.33;21.67;;;;;10.03;100.00;101514.25;4985657;28;45783;-84
2023/04/19 03:27:46;;;;;;;;;19.33;18.00;;;;;9.76;100.00;101471.03;4970819;28;45375;-85
2023/04/19 03:30:12;;;;;;;;;23.67;22.00;;;;;10.01;100.00;101507.25;4988618;28;46022;-82
2023/04/19 03:32:38;;;;;;;;;20.33;17.67;;;;;9.82;100.00;101481.22;4984265;28;45793;-81
2023/04/19 03:35:06;;;;;;;;;20.67;20.67;;;;;9.96;100.00;101510.56;4984573;28;45808;-81
2023/04/19 03:37:31;;;;;;;;;25.67;25.33;;;;;9.91;100.00;101507.53;4983788;28;45499;-81
2023/04/19 03:39:57;;;;;;;;;23.67;23.00;;;;;9.92;100.00;101513.88;4964791;28;46415;-80
2023/04/19 03:42:22;;;;;;;;;26.33;21.67;;;;;9.89;100.00;101510.47;4993827;28;45413;-81
2023/04/19 03:44:48;;;;;;;;;36.67;26.67;;;;;9.87;100.00;101514.41;4985848;28;45494;-80
2023/04/19 03:47:14;;;;;;;;;33.33;26.00;;;;;9.88;100.00;101516.13;4998546;28;45425;-82
2023/04/19 03:49:39;;;;;;;;;27.00;21.33;;;;;9.88;100.00;101508.75;4987682;28;44831;-81
2023/04/19 03:52:05;;;;;;;;;15.33;15.33;;;;;9.74;100.00;101489.53;4992427;28;46288;-81
2023/04/19 03:54:31;;;;;;;;;26.00;21.33;;;;;9.78;100.00;101501.84;4987739;28;44798;-82
2023/04/19 03:56:57;;;;;;;;;23.67;20.00;;;;;9.78;100.00;101496.38;4989513;28;45468;-81
2023/04/19 03:59:23;;;;;;;;;24.33;23.67;;;;;9.81;100.00;101512.44;4989680;28;44791;-79
2023/04/19 04:01:49;;;;;;;;;25.33;21.67;;;;;9.78;100.00;101510.91;4994672;28;45442;-82
2023/04/19 04:04:14;;;;;;;;;22.33;17.00;;;;;9.74;100.00;101504.06;4974152;28;45345;-80
2023/04/19 04:06:40;;;;;;;;;24.67;22.00;;;;;9.71;100.00;101501.72;5001352;28;45467;-79
2023/04/19 04:09:05;;;;;;;;;22.33;20.67;;;;;9.67;100.00;101494.88;4993561;28;45646;-80
2023/04/19 04:11:36;;;;;;;;;22.33;21.33;;;;;9.66;100.00;101507.75;4994446;28;45495;-79
2023/04/19 04:14:12;;;;;;;;;32.33;28.67;;;;;9.66;100.00;101502.28;5015637;28;45586;-84
2023/04/19 04:16:37;;;;;;;;;35.33;33.00;;;;;9.46;100.00;101471.81;4986153;28;44746;-83
2023/04/19 04:19:02;;;;;;;;;42.50;36.00;;;;;9.66;100.00;101515.97;4984216;28;46143;-82
2023/04/19 04:21:31;;;;;;;;;52.50;41.50;;;;;9.61;100.00;101515.69;5008720;28;47872;-81
2023/04/19 04:23:57;;;;;;;;;55.75;43.25;;;;;9.42;100.00;101472.38;5002748;28;45370;-82
2023/04/19 04:26:24;;;;;;;;;55.25;41.50;;;;;9.64;100.00;101508.97;4982315;28;45468;-81
2023/04/19 04:28:50;;;;;;;;;50.75;39.00;;;;;9.49;100.00;101489.72;4981349;28;45857;-82
2023/04/19 04:31:17;;;;;;;;;43.75;34.25;;;;;9.46;100.00;101484.63;4990349;28;45370;-82
2023/04/19 04:33:44;;;;;;;;;38.50;32.75;;;;;9.43;100.00;101487.72;4988415;28;44728;-82
2023/04/19 04:36:10;;;;;;;;;35.00;30.67;;;;;9.59;100.00;101501.28;4989812;28;44931;-82
2023/04/19 04:38:36;;;;;;;;;38.33;30.00;;;;;9.51;100.00;101507.69;4992257;28;46662;-81
2023/04/19 04:41:02;;;;;;;;;32.67;27.00;;;;;9.50;100.00;101494.19;4974719;28;47093;-84
2023/04/19 04:43:28;;;;;;;;;31.00;25.33;;;;;9.39;100.00;101497.38;5005728;28;44847;-82
2023/04/19 04:45:56;;;;;;;;;31.33;26.00;;;;;9.52;100.00;101514.88;4979844;28;45493;-83
2023/04/19 04:48:21;;;;;;;;;32.33;25.67;;;;;9.39;100.00;101480.94;4974286;28;47333;-87
2023/04/19 04:50:47;;;;;;;;;27.00;27.00;;;;;9.46;100.00;101495.56;4991917;28;47447;-83
2023/04/19 04:53:12;;;;;;;;;22.33;21.00;;;;;9.49;100.00;101508.91;4988829;28;44704;-83
2023/04/19 04:55:38;;;;;;;;;22.33;20.33;;;;;9.53;100.00;101510.25;4979331;28;45435;-81
2023/04/19 04:58:04;;;;;;;;;29.33;26.00;;;;;9.52;100.00;101505.78;4987794;28;45440;-81
2023/04/19 05:00:31;;;;;;;;;25.00;24.67;;;;;9.57;100.00;101505.28;4996396;28;45429;-82
2023/04/19 05:02:57;;;;;;;;;26.33;21.67;;;;;9.69;100.00;101520.22;4979442;28;44851;-81
2023/04/19 05:05:22;;;;;;;;;33.33;27.67;;;;;9.78;100.00;101521.84;4993409;28;45441;-82
2023/04/19 05:07:48;;;;;;;;;28.67;26.00;;;;;9.90;100.00;101519.53;4992897;28;45552;-79
2023/04/19 05:10:14;;;;;;;;;22.33;21.00;;;;;10.02;100.00;101508.97;4989585;28;46536;-83
2023/04/19 05:12:40;;;;;;;;;28.00;25.33;;;;;10.18;100.00;101507.94;4992032;28;45680;-82
2023/04/19 05:15:06;;;;;;;;;28.00;20.33;;;;;10.37;100.00;101506.56;4991667;28;45343;-81
2023/04/19 05:17:32;;;;;;;;;25.00;24.00;;;;;10.57;100.00;101532.38;4990607;28;45368;-80
2023/04/19 05:19:59;;;;;;;;;22.00;17.67;;;;;10.76;100.00;101522.75;4974547;28;48038;-84
2023/04/19 05:22:25;;;;;;;;;23.67;17.67;;;;;10.89;100.00;101508.31;5003334;28;45330;-82
2023/04/19 05:24:51;;;;;;;;;26.67;25.00;;;;;11.15;100.00;101520.66;4989579;28;45515;-83
2023/04/19 05:27:17;;;;;;;;;30.00;22.33;;;;;11.34;100.00;101515.59;4977227;28;45913;-82
2023/04/19 05:29:42;;;;;;;;;22.33;18.67;;;;;11.61;100.00;101530.44;4992980;28;45527;-82
2023/04/19 05:32:08;;;;;;;;;31.00;27.00;;;;;11.79;100.00;101517.06;4993584;28;45467;-82
2023/04/19 05:34:35;;;;;;;;;19.00;17.67;;;;;12.13;100.00;101526.47;4993702;28;45456;-80
2023/04/19 05:37:02;;;;;;;;;26.33;22.00;;;;;12.41;100.00;101525.63;4994186;28;45381;-82
2023/04/19 05:39:28;;;;;;;;;30.67;28.67;;;;;12.66;100.00;101523.19;4992732;28;45250;-82
2023/04/19 05:41:56;;;;;;;;;23.67;20.67;;;;;12.98;100.00;101531.84;4989700;28;45421;-85
2023/04/19 05:44:22;;;;;;;;;31.00;27.33;;;;;13.19;100.00;101528.09;4990026;28;45516;-83
2023/04/19 05:46:48;;;;;;;;;33.67;28.00;;;;;13.48;100.00;101537.09;5000415;28;44860;-82
2023/04/19 05:49:14;;;;;;;;;25.33;25.00;;;;;13.56;100.00;101542.44;4978403;28;46924;-81
2023/04/19 05:51:39;;;;;;;;;25.67;23.33;;;;;13.52;100.00;101530.13;4998377;28;45659;-82
2023/04/19 05:54:05;;;;;;;;;29.67;27.00;;;;;13.86;100.00;101543.94;4999583;28;45296;-82
2023/04/19 05:56:31;;;;;;;;;32.33;25.67;;;;;14.28;100.00;101531.63;4986859;28;45377;-81
2023/04/19 05:58:57;;;;;;;;;18.67;18.67;;;;;14.34;100.00;101552.00;4993979;28;45326;-82
2023/04/19 06:01:23;;;;;;;;;27.33;25.33;;;;;14.40;100.00;101529.06;4970312;28;44882;-82
2023/04/19 06:03:54;;;;;;;;;29.33;25.00;;;;;14.45;100.00;101554.09;4984906;28;45986;-80
2023/04/19 06:06:21;;;;;;;;;32.00;27.33;;;;;14.54;100.00;101554.72;4985339;28;44951;-80
2023/04/19 06:08:47;;;;;;;;;27.00;25.67;;;;;14.81;100.00;101558.28;4979695;28;45996;-81
2023/04/19 06:11:12;;;;;;;;;30.00;24.67;;;;;15.14;100.00;101556.47;4972148;28;45579;-81
2023/04/19 06:13:39;;;;;;;;;28.33;22.33;;;;;15.54;100.00;101551.56;4967858;28;45538;-82
2023/04/19 06:16:06;;;;;;;;;27.00;24.00;;;;;15.76;100.00;101561.41;4988858;28;46388;-84
2023/04/19 06:18:32;;;;;;;;;26.67;25.67;;;;;15.95;100.00;101563.22;4971532;28;46436;-82
2023/04/19 06:20:57;;;;;;;;;28.67;24.67;;;;;16.12;100.00;101551.59;4983747;28;44817;-82
2023/04/19 06:23:24;;;;;;;;;24.00;22.67;;;;;16.37;100.00;101548.81;4973938;28;45540;-81
2023/04/19 06:25:50;;;;;;;;;23.33;20.67;;;;;16.46;100.00;101561.28;4970817;28;45653;-82
2023/04/19 06:28:15;;;;;;;;;22.67;21.00;;;;;16.55;100.00;101556.31;4979947;28;45525;-81
2023/04/19 06:30:43;;;;;;;;;23.67;18.67;;;;;16.57;100.00;101549.47;4976123;28;45550;-81
2023/04/19 06:33:08;;;;;;;;;20.67;20.67;;;;;16.69;100.00;101545.91;4964945;28;45413;-79
2023/04/19 06:35:34;;;;;;;;;24.67;22.67;;;;;17.00;100.00;101555.19;4970568;28;45641;-82
2023/04/19 06:37:59;;;;;;;;;32.00;25.33;;;;;17.16;100.00;101554.56;4979522;28;46360;-83
2023/04/19 06:40:28;;;;;;;;;22.67;20.00;;;;;17.51;100.00;101558.56;4967252;28;45409;-81
2023/04/19 06:42:54;;;;;;;;;25.00;23.33;;;;;17.69;100.00;101565.97;4980522;28;45465;-81
2023/04/19 06:45:20;;;;;;;;;22.67;17.67;;;;;17.90;100.00;101557.13;4968795;28;45593;-76
2023/04/19 06:47:45;;;;;;;;;22.00;20.00;;;;;18.01;100.00;101572.13;4971340;28;46270;-73
2023/04/19 06:50:11;;;;;;;;;18.33;17.33;;;;;18.10;100.00;101559.59;4957003;28;44864;-74
2023/04/19 06:52:37;;;;;;;;;28.67;23.67;;;;;18.50;100.00;101570.00;4958819;28;45744;-74
2023/04/19 06:55:02;;;;;;;;;19.67;18.00;;;;;19.02;100.00;101568.41;4958056;28;45994;-74
2023/04/19 06:57:28;;;;;;;;;27.67;26.33;;;;;19.22;100.00;101567.97;4966478;28;46642;-74
2023/04/19 06:59:54;;;;;;;;;22.00;16.00;;;;;19.10;100.00;101565.25;4958890;28;45353;-74
2023/04/19 07:02:20;;;;;;;;;27.00;23.33;;;;;19.44;100.00;101565.34;4958878;28;45334;-72
2023/04/19 07:04:46;;;;;;;;;20.00;19.33;;;;;19.53;100.00;101569.41;4954852;28;45433;-74
2023/04/19 07:07:12;;;;;;;;;21.67;20.67;;;;;19.43;100.00;101569.25;4959557;28;46053;-74
2023/04/19 07:09:37;;;;;;;;;17.00;11.00;;;;;19.49;100.00;101571.03;4960937;28;45696;-73
2023/04/19 07:12:02;;;;;;;;;20.33;18.00;;;;;19.51;100.00;101559.66;4957590;28;46064;-74
2023/04/19 07:14:28;;;;;;;;;27.33;18.67;;;;;20.08;100.00;101569.88;4957375;28;46178;-74
2023/04/19 07:16:54;;;;;;;;;26.33;22.33;;;;;20.51;100.00;101559.97;4959848;28;47145;-75
2023/04/19 07:19:21;;;;;;;;;22.67;18.33;;;;;20.66;100.00;101572.47;4959273;28;46670;-74
2023/04/19 07:21:47;;;;;;;;;17.33;15.67;;;;;20.57;100.00;101570.09;4954478;28;45524;-74
2023/04/19 07:24:12;;;;;;;;;17.33;15.33;;;;;20.31;100.00;101580.00;4973502;28;45979;-75
2023/04/19 07:26:37;;;;;;;;;21.33;19.00;;;;;20.50;100.00;101580.56;4955251;28;46902;-74
2023/04/19 07:29:03;;;;;;;;;20.67;19.33;;;;;20.71;100.00;101587.31;4960308;28;45825;-75
2023/04/19 07:31:29;;;;;;;;;28.33;25.00;;;;;20.84;100.00;101582.47;4960881;28;45426;-73
2023/04/19 07:33:54;;;;;;;;;18.33;16.67;;;;;20.98;100.00;101567.06;4959279;28;45436;-74
2023/04/19 07:36:20;;;;;;;;;26.67;23.33;;;;;21.10;98.71;101581.72;4959171;28;46226;-74
2023/04/19 07:38:46;;;;;;;;;28.33;23.67;;;;;21.08;97.76;101595.09;4958322;28;45753;-73
2023/04/19 07:41:11;;;;;;;;;16.67;14.33;;;;;21.03;97.25;101577.44;4968050;28;45483;-74
2023/04/19 07:43:37;;;;;;;;;23.00;19.33;;;;;20.95;97.19;101598.25;4953573;28;45820;-73
2023/04/19 07:46:08;;;;;;;;;19.33;19.33;;;;;20.96;97.06;101564.53;4955375;28;45934;-73
2023/04/19 07:48:34;;;;;;;;;26.00;24.67;;;;;21.28;95.99;101577.75;4954348;28;45705;-74
2023/04/19 07:51:15;;;;;;;;;12.33;12.33;;;;;21.22;94.49;101567.63;4968175;28;45464;-74
2023/04/19 07:53:41;;;;;;;;;22.00;17.00;;;;;20.93;94.65;101558.66;4986233;28;47318;-74
2023/04/19 07:56:07;;;;;;;;;26.00;25.00;;;;;20.10;96.61;101578.81;4957609;28;45512;-75
2023/04/19 07:58:34;;;;;;;;;29.00;23.33;;;;;19.05;99.26;101576.25;4967806;28;45419;-74
2023/04/19 08:01:00;;;;;;;;;26.67;21.00;;;;;18.32;100.00;101584.00;4964633;28;45242;-73
2023/04/19 08:03:25;;;;;;;;;27.67;21.33;;;;;17.62;100.00;101578.03;4973710;28;46779;-74
2023/04/19 08:05:51;;;;;;;;;25.67;19.33;;;;;17.11;100.00;101577.44;4959123;28;45716;-74
2023/04/19 08:08:16;;;;;;;;;30.00;23.67;;;;;16.77;100.00;101565.03;4966619;28;45296;-73
2023/04/19 08:10:42;;;;;;;;;24.33;21.67;;;;;16.38;100.00;101565.19;4974981;28;45516;-73
2023/04/19 08:13:07;;;;;;;;;26.33;22.00;;;;;16.21;100.00;101575.13;4958427;28;45630;-75
2023/04/19 08:15:33;;;;;;;;;25.00;23.00;;;;;15.96;100.00;101575.13;4974795;28;46518;-74
2023/04/19 08:17:59;;;;;;;;;30.00;23.33;;;;;15.77;100.00;101593.56;4957922;28;45437;-74
2023/04/19 08:20:25;;;;;;;;;30.00;25.00;;;;;15.41;100.00;101595.03;4972363;28;45769;-75
2023/04/19 08:22:51;;;;;;;;;27.33;23.33;;;;;15.25;100.00;101590.84;4969599;28;46188;-76
2023/04/19 08:25:16;;;;;;;;;24.33;18.67;;;;;15.06;100.00;101570.50;4976139;28;46123;-74
2023/04/19 08:27:42;;;;;;;;;28.33;26.00;;;;;15.00;100.00;101581.38;4973850;28;45567;-76
2023/04/19 08:30:09;;;;;;;;;23.33;18.00;;;;;14.93;100.00;101599.03;4974031;28;45470;-76
2023/04/19 08:32:35;;;;;;;;;27.00;23.67;;;;;14.83;100.00;101577.38;4984691;28;45593;-76
2023/04/19 08:35:00;;;;;;;;;19.67;14.33;;;;;14.76;100.00;101584.84;4981352;28;45855;-76
2023/04/19 08:37:26;;;;;;;;;19.67;19.67;;;;;15.46;100.00;101573.09;4963863;28;46099;-76
2023/04/19 08:39:51;;;;;;;;;31.33;26.67;;;;;16.98;100.00;101563.75;4958430;28;45505;-75
2023/04/19 08:42:17;;;;;;;;;28.33;23.33;;;;;18.37;100.00;101566.59;4986684;28;45881;-75
2023/04/19 08:44:45;;;;;;;;;29.00;21.67;;;;;19.54;100.00;101570.28;4980233;28;45955;-76
2023/04/19 08:47:11;;;;;;;;;22.67;22.67;;;;;20.44;100.00;101562.09;4980182;28;45419;-74
2023/04/19 08:49:38;;;;;;;;;24.67;21.33;;;;;21.38;100.00;101576.19;4980322;28;45569;-74
2023/04/19 08:52:07;;;;;;;;;19.00;17.67;;;;;22.25;100.00;101546.34;4986275;28;45661;-74
2023/04/19 08:54:34;;;;;;;;;29.67;23.67;;;;;22.91;97.21;101559.91;4983918;28;46177;-75
2023/04/19 08:57:00;;;;;;;;;17.67;15.67;;;;;23.87;94.53;101573.69;4977006;28;45492;-72
2023/04/19 08:59:27;;;;;;;;;29.67;26.00;;;;;24.46;87.09;101566.69;4980887;28;45438;-75
2023/04/19 09:01:55;;;;;;;;;22.67;20.33;;;;;24.76;83.13;101569.72;4964017;28;45752;-74
2023/04/19 09:04:21;;;;;;;;;24.33;21.33;;;;;25.18;80.23;101555.25;4959201;28;45886;-72
2023/04/19 09:06:46;;;;;;;;;25.67;20.33;;;;;26.20;77.02;101550.09;4980525;28;45421;-73
2023/04/19 09:09:18;;;;;;;;;17.33;12.33;;;;;26.81;72.93;101558.22;4991634;28;45720;-75
2023/04/19 09:11:43;;;;;;;;;20.67;20.33;;;;;27.08;69.72;101552.84;4983972;28;45965;-75
2023/04/19 09:14:11;;;;;;;;;18.67;18.33;;;;;27.34;67.26;101557.31;4989202;28;46127;-73
2023/04/19 09:16:38;;;;;;;;;23.00;18.67;;;;;27.40;65.58;101547.66;4982236;28;45605;-73
2023/04/19 09:19:05;;;;;;;;;21.67;19.67;;;;;27.64;64.01;101553.22;4976460;28;45444;-75
2023/04/19 09:21:32;;;;;;;;;23.00;21.33;;;;;27.54;63.24;101537.28;4975361;28;45979;-73
2023/04/19 09:23:58;;;;;;;;;20.67;20.00;;;;;27.56;62.00;101543.47;4972878;28;47144;-74
2023/04/19 09:26:28;;;;;;;;;19.33;19.00;;;;;27.28;61.40;101548.06;4978841;28;45994;-73
2023/04/19 09:29:00;;;;;;;;;21.33;17.67;;;;;27.14;60.88;101550.75;4983757;28;45509;-74
2023/04/19 09:31:30;;;;;;;;;21.00;18.67;;;;;26.83;61.21;101547.50;4980236;28;45899;-74
2023/04/19 09:33:56;;;;;;;;;22.33;20.33;;;;;26.68;61.29;101542.91;4978441;28;45632;-74
2023/04/19 09:36:30;;;;;;;;;25.00;20.67;;;;;26.93;61.69;101539.78;4986505;28;45776;-75
2023/04/19 09:38:56;;;;;;;;;18.67;17.33;;;;;27.34;60.43;101532.78;4968401;28;45715;-74
2023/04/19 09:41:22;;;;;;;;;19.33;17.33;;;;;27.40;60.05;101525.13;4978264;28;45379;-76
2023/04/19 09:43:48;;;;;;;;;23.67;19.33;;;;;27.54;59.64;101528.81;4974806;28;45599;-75
2023/04/19 09:46:39;;;;;;;;;18.67;17.33;;;;;27.35;58.80;101533.63;4979365;28;45676;-75
2023/04/19 09:49:15;;;;;;;;;15.67;11.67;;;;;27.62;57.89;101518.84;4985692;28;45737;-75
2023/04/19 09:51:42;;;;;;;;;20.00;19.00;;;;;27.67;56.89;101509.50;4965265;28;46635;-77
2023/04/19 09:54:09;;;;;;;;;14.33;12.67;;;;;27.20;57.42;101523.38;4977416;28;45691;-76
2023/04/19 09:56:36;;;;;;;;;22.00;18.67;;;;;27.38;56.97;101516.13;4979120;28;45447;-76
2023/04/19 09:59:09;;;;;;;;;18.67;14.33;;;;;27.39;57.08;101512.16;4978348;28;45626;-76
2023/04/19 10:01:38;;;;;;;;;22.00;21.00;;;;;27.77;56.74;101515.78;4960215;28;46855;-75
2023/04/19 10:04:06;;;;;;;;;17.00;16.00;;;;;27.63;56.23;101520.53;4979425;28;46935;-75
2023/04/19 10:06:33;;;;;;;;;17.50;15.25;;;;;28.20;55.57;101500.69;4981270;28;45824;-77
2023/04/19 10:09:03;;;;;;;;;18.67;17.67;;;;;28.22;55.32;101515.34;4959246;28;45823;-76
2023/04/19 10:11:37;;;;;;;;;19.67;16.67;;;;;28.08;55.09;101520.09;4958574;28;45480;-76
2023/04/19 10:14:08;;;;;;;;;14.75;11.75;;;;;27.79;55.08;101507.84;4959558;28;45787;-76
2023/04/19 10:16:35;;;;;;;;;19.00;18.33;;;;;27.77;55.79;101498.88;4970669;28;45420;-76
2023/04/19 10:19:07;;;;;;;;;18.67;17.67;;;;;27.96;55.30;101514.91;4967549;28;45654;-76
2023/04/19 10:21:34;;;;;;;;;20.00;18.00;;;;;27.44;55.46;101507.31;4961231;28;45142;-76
2023/04/19 10:24:00;;;;;;;;;18.00;15.33;;;;;26.45;56.12;101480.66;4956910;28;45741;-78
2023/04/19 10:26:26;;;;;;;;;20.33;20.33;;;;;25.83;57.83;101481.25;4977972;28;45191;-81
2023/04/19 10:28:56;;;;;;;;;19.33;15.00;;;;;25.62;59.31;101500.25;4958316;28;45693;-78
2023/04/19 10:31:25;;;;;;;;;21.67;19.00;;;;;25.56;59.36;101473.31;4960238;28;45812;-79
2023/04/19 10:33:54;;;;;;;;;19.33;19.33;;;;;25.62;60.20;101502.22;4956062;28;45591;-76
2023/04/19 10:36:27;;;;;;;;;19.33;17.67;;;;;25.27;60.15;101495.66;4957506;28;45720;-77
2023/04/19 10:38:54;;;;;;;;;21.67;20.33;;;;;24.91;61.17;101495.88;4952362;28;45985;-77
2023/04/19 10:41:21;;;;;;;;;22.00;18.33;;;;;24.79;60.84;101488.63;4951854;28;45650;-79
2023/04/19 10:43:50;;;;;;;;;15.33;13.67;;;;;24.41;61.03;101504.97;4947756;28;45459;-80
2023/04/19 10:46:41;;;;;;;;;17.67;16.33;;;;;24.14;61.97;101494.09;4965420;28;45526;-76
2023/04/19 10:49:08;;;;;;;;;20.33;15.00;;;;;24.34;61.59;101490.41;4947262;28;45730;-78
2023/04/19 10:51:59;;;;;;;;;17.67;15.00;;;;;24.06;62.15;101466.66;4959050;28;45311;-80
2023/04/19 10:54:41;;;;;;;;;19.67;14.67;;;;;24.25;62.24;101483.72;4959717;28;45674;-80
2023/04/19 10:57:09;;;;;;;;;18.00;16.00;;;;;24.46;62.41;101485.34;4956737;28;45447;-79
2023/04/19 10:59:35;;;;;;;;;16.33;14.33;;;;;24.40;61.56;101494.91;4957160;28;45682;-77
2023/04/19 11:02:03;;;;;;;;;17.00;15.33;;;;;23.78;61.11;101466.09;4969205;28;45454;-77